Time;durP1;ratioP1;P1;durP2;ratioP2;P2;SDS_P1;SDS_P2;PMS_P1;PMS_P2;Temp;Humidity;BMP_temperature;BMP_pressure;BME280_temperature;BME280_humidity;BME280_pressure;Samples;Min_cycle;Max_cycle;Signal;HPM_P1;HPM_P2
2023/05/09 00:01:30;;;;;;;6.40;3.20;;;20.60;42.90;;;;;;5049206;28;20031;-75
2023/05/09 00:03:57;;;;;;;6.80;3.47;;;20.60;42.90;;;;;;5049114;28;20487;-74
2023/05/09 00:06:24;;;;;;;5.65;3.10;;;20.60;43.00;;;;;;5048136;28;20033;-74
2023/05/09 00:08:50;;;;;;;4.03;3.00;;;20.60;43.20;;;;;;5048111;28;20029;-74
2023/05/09 00:11:16;;;;;;;8.73;3.40;;;20.60;43.10;;;;;;5047865;28;20033;-74
2023/05/09 00:13:43;;;;;;;7.63;2.97;;;20.60;43.10;;;;;;5048588;28;20029;-75
2023/05/09 00:16:09;;;;;;;5.95;2.95;;;20.60;43.10;;;;;;5049423;28;20444;-74
2023/05/09 00:18:36;;;;;;;4.80;3.03;;;20.60;43.10;;;;;;5049315;28;20558;-75
2023/05/09 00:21:03;;;;;;;5.28;2.90;;;20.60;43.30;;;;;;5048884;28;20653;-75
2023/05/09 00:23:29;;;;;;;6.78;2.90;;;20.70;43.30;;;;;;5047933;28;20043;-75
2023/05/09 00:25:55;;;;;;;6.00;3.38;;;20.70;43.30;;;;;;5045230;28;20025;-74
2023/05/09 00:28:21;;;;;;;5.50;3.00;;;20.70;43.30;;;;;;5047897;28;20041;-75
2023/05/09 00:30:46;;;;;;;4.03;2.75;;;20.60;43.30;;;;;;5049264;28;20033;-75
2023/05/09 00:33:12;;;;;;;7.75;2.95;;;20.70;43.30;;;;;;5047777;28;20434;-74
2023/05/09 00:35:39;;;;;;;6.68;3.20;;;20.60;43.30;;;;;;5047401;28;20060;-75
2023/05/09 00:38:04;;;;;;;6.40;3.13;;;20.60;43.40;;;;;;5048121;28;20295;-75
2023/05/09 00:40:30;;;;;;;4.97;3.05;;;20.70;44.10;;;;;;5047735;28;20530;-75
2023/05/09 00:42:58;;;;;;;5.68;3.05;;;20.60;43.80;;;;;;5047553;28;20025;-75
2023/05/09 00:45:24;;;;;;;6.97;3.20;;;20.60;43.60;;;;;;5047654;28;20033;-74
2023/05/09 00:47:50;;;;;;;7.20;3.25;;;20.60;43.50;;;;;;5049251;28;20029;-74
2023/05/09 00:50:16;;;;;;;5.50;2.78;;;20.60;43.60;;;;;;5049340;28;20378;-75
2023/05/09 00:52:42;;;;;;;5.63;3.40;;;20.60;43.60;;;;;;5047360;28;20032;-75
2023/05/09 00:55:09;;;;;;;4.97;2.95;;;20.70;43.60;;;;;;5047907;28;20472;-75
2023/05/09 00:57:35;;;;;;;6.50;3.10;;;20.60;43.60;;;;;;5047313;28;20025;-75
2023/05/09 01:00:03;;;;;;;7.05;3.15;;;20.60;43.60;;;;;;5047745;28;20021;-75
2023/05/09 01:02:30;;;;;;;5.13;2.88;;;20.60;43.70;;;;;;5047464;28;20025;-75
2023/05/09 01:04:57;;;;;;;5.05;3.10;;;20.60;43.60;;;;;;5049045;28;20574;-75
2023/05/09 01:07:38;;;;;;;4.63;2.90;;;20.60;43.70;;;;;;5080865;28;20032;-74
2023/05/09 01:10:12;;;;;;;7.93;3.10;;;20.60;43.70;;;;;;5047765;28;20036;-75
2023/05/09 01:12:59;;;;;;;4.95;2.92;;;20.60;43.70;;;;;;5047175;28;20032;-74
2023/05/09 01:15:33;;;;;;;5.97;2.88;;;20.60;43.80;;;;;;5047250;28;20449;-75
2023/05/09 01:18:07;;;;;;;4.68;2.80;;;20.60;43.70;;;;;;5047546;28;20834;-74
2023/05/09 01:20:46;;;;;;;5.70;2.83;;;20.60;43.80;;;;;;5047429;28;20390;-75
2023/05/09 01:23:54;;;;;;;6.88;3.00;;;20.60;43.80;;;;;;5045933;28;20481;-74
2023/05/09 01:26:41;;;;;;;7.90;3.63;;;20.60;43.90;;;;;;5051839;28;20099;-75
2023/05/09 01:29:29;;;;;;;4.45;2.78;;;20.60;43.80;;;;;;5049865;28;20025;-75
2023/05/09 01:31:56;;;;;;;6.57;3.10;;;20.60;43.80;;;;;;5050673;28;20048;-75
2023/05/09 01:34:25;;;;;;;5.57;3.00;;;20.70;44.00;;;;;;5051847;28;20033;-74
2023/05/09 01:36:55;;;;;;;3.83;2.97;;;20.60;43.80;;;;;;5080562;28;20039;-74
2023/05/09 01:39:23;;;;;;;5.00;2.88;;;20.60;44.10;;;;;;5051868;28;20033;-74
2023/05/09 01:41:51;;;;;;;5.03;2.53;;;20.60;44.80;;;;;;5051837;28;20639;-75
2023/05/09 01:44:19;;;;;;;7.78;3.20;;;20.60;44.50;;;;;;5034762;28;20028;-74
2023/05/09 01:46:46;;;;;;;7.00;2.92;;;20.60;44.60;;;;;;5052645;28;20116;-74
2023/05/09 01:49:12;;;;;;;7.82;3.22;;;20.60;44.30;;;;;;5035694;28;20108;-74
2023/05/09 01:51:40;;;;;;;14.20;3.88;;;20.70;44.20;;;;;;5053260;28;20474;-74
2023/05/09 01:54:09;;;;;;;16.15;3.30;;;20.60;44.30;;;;;;5052616;28;20721;-75
2023/05/09 01:56:36;;;;;;;14.95;3.33;;;20.60;44.30;;;;;;5036053;28;20029;-75
2023/05/09 01:59:03;;;;;;;15.45;3.15;;;20.60;44.40;;;;;;5052319;28;20040;-74
2023/05/09 02:01:30;;;;;;;7.47;3.10;;;20.60;44.30;;;;;;5051672;28;20060;-74
2023/05/09 02:03:57;;;;;;;7.70;3.10;;;20.60;44.30;;;;;;5035768;28;20045;-74
2023/05/09 02:06:23;;;;;;;9.38;3.00;;;20.60;44.30;;;;;;5053319;28;20462;-75
2023/05/09 02:08:50;;;;;;;9.10;3.22;;;20.60;44.30;;;;;;5035566;28;20031;-75
2023/05/09 02:11:16;;;;;;;8.55;3.20;;;20.60;44.40;;;;;;5035284;28;20037;-75
2023/05/09 02:13:42;;;;;;;9.32;3.20;;;20.60;44.40;;;;;;5035585;28;20032;-74
2023/05/09 02:16:09;;;;;;;11.98;3.58;;;20.60;44.40;;;;;;5035380;28;20036;-74
2023/05/09 02:18:36;;;;;;;11.20;3.28;;;20.60;44.60;;;;;;5051842;28;20041;-74
2023/05/09 02:21:02;;;;;;;11.75;3.63;;;20.60;44.80;;;;;;5051315;28;20116;-74
2023/05/09 02:23:28;;;;;;;11.77;3.88;;;20.60;45.00;;;;;;5035289;28;20029;-74
2023/05/09 02:25:54;;;;;;;14.70;4.13;;;20.60;45.00;;;;;;5051733;28;20025;-74
2023/05/09 02:28:24;;;;;;;20.42;4.88;;;20.60;45.10;;;;;;5051744;28;20033;-74
2023/05/09 02:30:51;;;;;;;16.95;4.15;;;20.70;44.90;;;;;;5051325;28;20025;-74
2023/05/09 02:33:17;;;;;;;10.18;3.85;;;20.70;45.10;;;;;;5018560;28;20029;-74
2023/05/09 02:35:45;;;;;;;14.65;4.07;;;20.70;45.20;;;;;;5051389;28;20035;-75
2023/05/09 02:38:12;;;;;;;15.50;4.27;;;20.70;45.20;;;;;;5035085;28;20064;-74
2023/05/09 02:40:38;;;;;;;15.90;4.63;;;20.60;45.30;;;;;;5052479;28;20025;-75
2023/05/09 02:43:04;;;;;;;15.38;4.45;;;20.60;45.30;;;;;;5051041;28;20023;-74
2023/05/09 02:45:31;;;;;;;13.88;4.25;;;20.60;45.30;;;;;;5051496;28;20572;-75
2023/05/09 02:47:56;;;;;;;15.77;4.00;;;20.60;45.50;;;;;;5051230;28;20490;-74
2023/05/09 02:50:22;;;;;;;18.38;4.38;;;20.70;45.80;;;;;;5034833;28;20111;-74
2023/05/09 02:52:48;;;;;;;15.98;4.47;;;20.70;45.40;;;;;;5034347;28;20025;-74
2023/05/09 02:55:14;;;;;;;14.63;4.85;;;20.60;45.50;;;;;;5051142;28;20098;-74
2023/05/09 02:57:41;;;;;;;17.30;4.88;;;20.60;45.30;;;;;;5034825;28;20029;-74
2023/05/09 03:00:11;;;;;;;13.00;4.78;;;20.60;45.50;;;;;;5050883;28;20495;-74
2023/05/09 03:02:38;;;;;;;12.40;4.35;;;20.60;45.60;;;;;;5050648;28;20146;-74
2023/05/09 03:05:06;;;;;;;15.68;4.65;;;20.60;45.60;;;;;;5050995;28;20096;-74
2023/05/09 03:07:34;;;;;;;17.25;4.70;;;20.60;45.50;;;;;;5050980;28;20021;-74
2023/05/09 03:10:00;;;;;;;11.40;4.40;;;20.60;45.50;;;;;;5034400;28;20036;-74
2023/05/09 03:12:27;;;;;;;12.43;4.68;;;20.60;45.90;;;;;;5017730;28;20036;-75
2023/05/09 03:14:55;;;;;;;14.55;4.50;;;20.60;46.00;;;;;;5051102;28;20029;-74
2023/05/09 03:17:22;;;;;;;16.55;4.55;;;20.60;45.90;;;;;;5051929;28;20033;-74
2023/05/09 03:19:48;;;;;;;15.68;5.00;;;20.60;45.90;;;;;;5050680;28;20025;-75
2023/05/09 03:22:15;;;;;;;15.77;5.32;;;20.60;45.70;;;;;;5050271;28;20028;-74
2023/05/09 03:24:49;;;;;;;12.45;4.22;;;20.70;45.70;;;;;;5034187;28;20372;-75
2023/05/09 03:27:16;;;;;;;18.20;5.72;;;20.70;45.50;;;;;;5050743;28;20498;-73
2023/05/09 03:29:42;;;;;;;12.00;4.60;;;20.70;45.70;;;;;;5050844;28;20032;-74
2023/05/09 03:32:09;;;;;;;15.48;5.15;;;20.70;45.60;;;;;;5050027;28;20549;-74
2023/05/09 03:34:35;;;;;;;14.05;4.68;;;20.70;45.80;;;;;;5034153;28;20163;-74
2023/05/09 03:37:01;;;;;;;13.00;4.93;;;20.70;46.00;;;;;;5034146;28;20041;-74
2023/05/09 03:39:28;;;;;;;16.58;4.53;;;20.70;45.90;;;;;;5050379;28;20029;-74
2023/05/09 03:41:56;;;;;;;11.75;4.63;;;20.70;45.80;;;;;;5033345;28;20059;-74
2023/05/09 03:44:22;;;;;;;14.05;4.60;;;20.70;45.90;;;;;;5050769;28;20058;-74
2023/05/09 03:46:48;;;;;;;13.38;4.65;;;20.70;45.70;;;;;;5033077;28;20020;-75
2023/05/09 03:49:14;;;;;;;15.48;4.20;;;20.70;45.80;;;;;;5033918;28;20071;-74
2023/05/09 03:51:40;;;;;;;12.63;4.90;;;20.70;46.00;;;;;;5050042;28;20032;-74
2023/05/09 03:54:11;;;;;;;12.13;4.85;;;20.70;45.90;;;;;;5050216;28;20036;-74
2023/05/09 03:56:37;;;;;;;15.63;4.63;;;20.70;46.10;;;;;;5017446;28;20375;-75
2023/05/09 03:59:03;;;;;;;14.10;4.72;;;20.70;46.00;;;;;;5050163;28;20401;-75
2023/05/09 04:01:30;;;;;;;14.95;4.60;;;20.70;46.00;;;;;;5049655;28;20112;-74
2023/05/09 04:03:57;;;;;;;13.45;4.30;;;20.70;46.10;;;;;;5050118;28;20037;-74
2023/05/09 04:06:24;;;;;;;12.30;4.78;;;20.70;46.00;;;;;;5033665;28;20029;-74
2023/05/09 04:08:51;;;;;;;15.88;4.50;;;20.70;46.20;;;;;;5049961;28;20033;-74
2023/05/09 04:11:17;;;;;;;16.58;4.63;;;20.70;46.00;;;;;;5016854;28;20041;-75
2023/05/09 04:13:45;;;;;;;13.95;5.40;;;20.70;45.80;;;;;;5050007;28;20111;-74
2023/05/09 04:16:25;;;;;;;;;;;20.70;45.90;;;;;;5035756;28;20039;-75
2023/05/09 04:18:51;;;;;;;10.65;4.20;;;20.70;46.30;;;;;;5050068;28;19917;-74
2023/05/09 04:21:17;;;;;;;14.90;4.53;;;20.70;46.10;;;;;;5050499;28;20462;-74
2023/05/09 04:23:46;;;;;;;12.95;5.43;;;20.70;46.50;;;;;;5049951;28;20029;-74
2023/05/09 04:26:13;;;;;;;13.85;4.18;;;20.70;46.20;;;;;;5049659;28;20029;-74
2023/05/09 04:28:40;;;;;;;12.88;4.75;;;20.70;46.40;;;;;;5049845;28;20025;-74
2023/05/09 04:31:07;;;;;;;14.70;4.63;;;20.70;46.30;;;;;;5032871;28;20028;-75
2023/05/09 04:33:35;;;;;;;11.00;4.50;;;20.70;46.30;;;;;;5049695;28;20077;-75
2023/05/09 04:36:03;;;;;;;13.00;4.47;;;20.70;46.40;;;;;;5049728;28;20029;-74
2023/05/09 04:38:29;;;;;;;12.75;4.30;;;20.80;46.40;;;;;;5049835;28;20033;-74
2023/05/09 04:40:55;;;;;;;11.60;4.97;;;20.70;46.30;;;;;;5049361;28;20029;-74
2023/05/09 04:43:21;;;;;;;11.35;4.20;;;20.70;46.20;;;;;;5033211;28;20033;-74
2023/05/09 04:45:47;;;;;;;12.18;4.80;;;20.70;46.20;;;;;;5049955;28;20082;-75
2023/05/09 04:48:14;;;;;;;10.70;4.28;;;20.70;45.60;;;;;;5049625;28;20036;-74
2023/05/09 04:50:40;;;;;;;13.00;4.28;;;20.70;46.30;;;;;;5033160;28;20037;-75
2023/05/09 04:53:07;;;;;;;9.63;4.15;;;20.70;45.60;;;;;;5033109;28;20035;-74
2023/05/09 04:55:34;;;;;;;10.68;3.88;;;20.70;45.60;;;;;;5049559;28;20437;-74
2023/05/09 04:58:01;;;;;;;14.70;4.70;;;20.70;46.10;;;;;;5049548;28;20035;-75
2023/05/09 05:00:26;;;;;;;12.05;4.68;;;20.70;46.00;;;;;;5052558;28;20124;-75
2023/05/09 05:02:52;;;;;;;9.95;4.38;;;20.70;46.00;;;;;;5052882;28;20433;-74
2023/05/09 05:05:18;;;;;;;7.85;3.58;;;20.70;46.00;;;;;;5053306;28;20104;-75
2023/05/09 05:07:45;;;;;;;11.40;4.47;;;20.70;45.90;;;;;;5054503;28;20029;-74
2023/05/09 05:10:17;;;;;;;11.70;4.57;;;20.70;46.00;;;;;;5053159;28;20036;-74
2023/05/09 05:12:47;;;;;;;10.32;4.30;;;20.70;46.20;;;;;;5036744;28;20471;-74
2023/05/09 05:15:13;;;;;;;13.13;4.47;;;20.70;46.40;;;;;;5053061;28;20047;-74
2023/05/09 05:17:42;;;;;;;11.55;4.45;;;20.70;46.00;;;;;;5052967;28;20025;-74
2023/05/09 05:20:09;;;;;;;12.50;4.43;;;20.70;46.30;;;;;;5036563;28;20524;-74
2023/05/09 05:22:39;;;;;;;10.23;4.28;;;20.70;46.30;;;;;;5053829;28;20104;-74
2023/05/09 05:25:05;;;;;;;9.35;3.92;;;20.70;46.50;;;;;;5036541;28;20455;-74
2023/05/09 05:27:32;;;;;;;8.68;4.20;;;20.70;46.30;;;;;;5052844;28;20086;-74
2023/05/09 05:29:58;;;;;;;12.75;4.35;;;20.70;46.10;;;;;;5052821;28;20479;-74
2023/05/09 05:32:24;;;;;;;11.80;4.13;;;20.80;46.40;;;;;;5052374;28;20063;-75
2023/05/09 05:34:50;;;;;;;16.13;4.35;;;20.80;46.40;;;;;;5036341;28;20245;-74
2023/05/09 05:37:17;;;;;;;11.50;4.30;;;20.80;46.30;;;;;;5052710;28;20364;-74
2023/05/09 05:39:43;;;;;;;13.30;4.63;;;20.80;46.30;;;;;;5052650;28;20040;-74
2023/05/09 05:42:09;;;;;;;8.27;4.00;;;20.70;46.50;;;;;;5052076;28;20505;-74
2023/05/09 05:44:36;;;;;;;10.98;4.07;;;20.80;46.30;;;;;;5036254;28;20025;-75
2023/05/09 05:47:01;;;;;;;9.80;3.83;;;20.80;46.40;;;;;;5036010;28;20031;-74
2023/05/09 05:49:27;;;;;;;27.73;4.20;;;20.70;46.40;;;;;;5052515;28;20083;-74
2023/05/09 05:51:53;;;;;;;9.15;4.45;;;20.70;46.40;;;;;;5051976;28;20440;-74
2023/05/09 05:54:20;;;;;;;9.98;4.38;;;20.70;46.30;;;;;;5052406;28;20533;-73
2023/05/09 05:56:46;;;;;;;10.55;4.07;;;20.70;46.10;;;;;;5052310;28;20033;-74
2023/05/09 05:59:12;;;;;;;9.32;3.95;;;20.70;46.30;;;;;;5052152;28;20041;-74
2023/05/09 06:01:38;;;;;;;9.20;3.88;;;20.80;46.50;;;;;;5051788;28;20398;-74
2023/05/09 06:04:04;;;;;;;11.48;4.35;;;20.80;46.50;;;;;;5035617;28;20055;-74
2023/05/09 06:06:32;;;;;;;11.57;4.10;;;20.80;46.60;;;;;;5053316;28;20032;-74
2023/05/09 06:08:58;;;;;;;9.43;4.60;;;20.80;46.60;;;;;;5035617;28;20120;-74
2023/05/09 06:11:23;;;;;;;9.07;3.80;;;20.80;46.70;;;;;;5052521;28;20115;-75
2023/05/09 06:13:49;;;;;;;12.95;4.20;;;20.80;47.00;;;;;;5019086;28;20028;-74
2023/05/09 06:16:16;;;;;;;8.77;4.10;;;20.80;47.60;;;;;;5051998;28;20112;-74
2023/05/09 06:18:42;;;;;;;10.93;3.80;;;20.80;47.00;;;;;;5053027;28;20033;-74
2023/05/09 06:21:08;;;;;;;8.77;3.95;;;20.80;47.00;;;;;;5051411;28;20029;-74
2023/05/09 06:23:35;;;;;;;9.07;4.15;;;20.80;47.50;;;;;;5051784;28;20573;-74
2023/05/09 06:26:02;;;;;;;8.23;4.05;;;20.80;47.40;;;;;;5035427;28;20029;-74
2023/05/09 06:28:29;;;;;;;8.55;3.90;;;20.80;47.50;;;;;;5051682;28;20025;-74
2023/05/09 06:30:55;;;;;;;11.15;4.03;;;20.80;47.50;;;;;;5052555;28;20044;-74
2023/05/09 06:33:21;;;;;;;9.63;4.32;;;20.80;47.30;;;;;;5051629;28;20024;-74
2023/05/09 06:35:46;;;;;;;8.70;4.07;;;20.80;47.10;;;;;;5051668;28;20060;-74
2023/05/09 06:38:12;;;;;;;7.93;4.20;;;20.80;47.00;;;;;;5034994;28;20032;-74
2023/05/09 06:40:38;;;;;;;11.70;3.88;;;20.80;47.10;;;;;;5052527;28;20116;-74
2023/05/09 06:43:03;;;;;;;7.30;3.67;;;20.80;47.00;;;;;;5052234;28;20032;-74
2023/05/09 06:45:29;;;;;;;21.77;4.20;;;20.80;47.50;;;;;;5052737;28;20515;-74
2023/05/09 06:47:55;;;;;;;10.77;3.80;;;20.80;47.80;;;;;;5034834;28;20135;-74
2023/05/09 06:50:21;;;;;;;8.90;3.72;;;20.80;47.80;;;;;;5034930;28;20052;-74
2023/05/09 06:52:47;;;;;;;10.77;4.57;;;20.90;48.20;;;;;;5052048;28;20394;-74
2023/05/09 06:55:13;;;;;;;10.88;4.15;;;20.80;48.10;;;;;;5051185;28;20412;-74
2023/05/09 06:57:42;;;;;;;8.48;3.45;;;20.90;48.10;;;;;;5052372;28;20029;-74
2023/05/09 07:00:08;;;;;;;9.43;4.20;;;20.80;48.30;;;;;;5052372;28;20033;-74
2023/05/09 07:02:34;;;;;;;12.45;4.25;;;20.90;48.60;;;;;;5051754;28;20544;-74
2023/05/09 07:05:00;;;;;;;10.15;3.80;;;20.90;48.50;;;;;;5052277;28;20029;-74
2023/05/09 07:07:26;;;;;;;8.57;3.65;;;20.90;48.90;;;;;;5052237;28;20395;-74
2023/05/09 07:09:52;;;;;;;8.27;3.50;;;20.90;48.90;;;;;;5052036;28;20112;-74
2023/05/09 07:12:17;;;;;;;12.00;3.90;;;20.90;48.90;;;;;;5051630;28;20025;-74
2023/05/09 07:14:43;;;;;;;13.73;3.42;;;20.90;49.00;;;;;;5052039;28;20082;-74
2023/05/09 07:17:09;;;;;;;15.20;4.20;;;20.90;49.00;;;;;;5050947;28;20029;-74
2023/05/09 07:19:35;;;;;;;12.60;3.60;;;20.90;49.10;;;;;;5052032;28;20375;-76
2023/05/09 07:22:00;;;;;;;12.38;3.67;;;20.90;47.70;;;;;;5046164;28;20020;-78
2023/05/09 07:24:26;;;;;;;18.75;3.47;;;20.80;43.60;;;;;;5041669;28;20108;-76
2023/05/09 07:26:52;;;;;;;17.00;3.78;;;20.70;41.40;;;;;;5048961;28;20069;-77
2023/05/09 07:29:19;;;;;;;17.67;4.47;;;20.60;42.80;;;;;;5045326;28;20088;-79
2023/05/09 07:32:11;;;;;;;12.20;3.75;;;20.60;41.40;;;;;;5026595;28;20626;-78
2023/05/09 07:34:40;;;;;;;14.43;3.17;;;20.60;41.00;;;;;;5048400;28;20040;-79
2023/05/09 07:37:05;;;;;;;8.73;3.70;;;20.50;39.60;;;;;;5049348;28;20621;-81
2023/05/09 07:39:31;;;;;;;8.68;3.38;;;20.50;39.10;;;;;;5048364;28;20041;-83
2023/05/09 07:41:57;;;;;;;6.90;3.38;;;20.40;39.10;;;;;;5049220;28;20036;-82
2023/05/09 07:44:23;;;;;;;9.45;3.05;;;20.50;39.50;;;;;;5049743;28;20024;-81
2023/05/09 07:46:49;;;;;;;9.95;3.50;;;20.60;41.30;;;;;;5049722;28;20368;-82
2023/05/09 07:49:14;;;;;;;7.93;3.42;;;20.60;41.10;;;;;;5049281;28;20032;-84
2023/05/09 07:51:40;;;;;;;6.85;3.58;;;20.60;40.80;;;;;;5049344;28;20526;-82
2023/05/09 07:54:07;;;;;;;10.52;3.45;;;20.70;41.80;;;;;;5049256;28;20051;-82
2023/05/09 07:56:32;;;;;;;6.85;3.00;;;20.70;40.50;;;;;;5048860;28;20033;-78
2023/05/09 07:58:58;;;;;;;7.10;3.17;;;20.80;42.60;;;;;;5047883;28;20467;-78
2023/05/09 08:01:24;;;;;;;9.10;3.15;;;20.80;44.00;;;;;;5047341;28;20108;-79
2023/05/09 08:03:50;;;;;;;6.90;2.58;;;20.80;41.10;;;;;;5049641;28;20021;-79
2023/05/09 08:06:16;;;;;;;7.30;3.08;;;20.70;38.70;;;;;;5049255;28;20082;-79
2023/05/09 08:08:42;;;;;;;5.68;2.80;;;20.70;39.00;;;;;;5047932;28;20391;-78
2023/05/09 08:11:08;;;;;;;11.20;3.20;;;20.60;37.90;;;;;;5046841;28;20025;-75
2023/05/09 08:13:33;;;;;;;8.93;2.90;;;20.60;38.60;;;;;;5047395;28;20425;-74
2023/05/09 08:16:00;;;;;;;11.70;3.10;;;20.70;37.90;;;;;;5049031;28;20075;-74
2023/05/09 08:18:25;;;;;;;5.45;2.90;;;20.80;38.90;;;;;;5048873;28;20079;-75
2023/05/09 08:20:51;;;;;;;7.60;3.20;;;20.80;38.90;;;;;;5048387;28;20429;-75
2023/05/09 08:23:17;;;;;;;6.90;2.63;;;20.90;39.10;;;;;;5048537;28;20067;-76
2023/05/09 08:25:43;;;;;;;8.00;3.40;;;20.90;39.30;;;;;;5048948;28;20479;-75
2023/05/09 08:28:09;;;;;;;9.00;3.47;;;20.90;39.50;;;;;;5030921;28;20040;-75
2023/05/09 08:30:35;;;;;;;8.63;2.85;;;20.90;39.80;;;;;;5048776;28;20033;-73
2023/05/09 08:33:01;;;;;;;10.60;3.10;;;21.00;40.10;;;;;;5048119;28;20444;-74
2023/05/09 08:35:27;;;;;;;4.75;3.03;;;21.00;40.40;;;;;;5052852;28;20025;-74
2023/05/09 08:37:53;;;;;;;5.45;2.90;;;21.00;40.50;;;;;;5052187;28;20398;-74
2023/05/09 08:40:19;;;;;;;5.75;2.95;;;21.00;40.80;;;;;;5050378;28;20029;-73
2023/05/09 08:42:47;;;;;;;9.30;3.40;;;21.00;40.80;;;;;;5052020;28;20028;-74
2023/05/09 08:45:14;;;;;;;6.68;3.10;;;21.10;41.10;;;;;;5051082;28;20025;-75
2023/05/09 08:47:40;;;;;;;9.88;2.80;;;21.10;41.20;;;;;;5052696;28;20025;-75
2023/05/09 08:50:07;;;;;;;8.32;2.92;;;21.00;41.30;;;;;;5051776;28;20029;-75
2023/05/09 08:52:34;;;;;;;5.57;2.75;;;21.10;41.70;;;;;;5051702;28;20025;-75
2023/05/09 08:55:06;;;;;;;7.65;3.03;;;21.10;41.80;;;;;;5049976;28;20082;-75
2023/05/09 08:57:35;;;;;;;5.28;2.45;;;21.10;41.80;;;;;;5052436;28;20032;-75
2023/05/09 09:00:04;;;;;;;6.80;2.93;;;21.10;41.90;;;;;;5052504;28;20060;-74
2023/05/09 09:02:32;;;;;;;9.07;3.08;;;21.10;42.10;;;;;;5050530;28;20295;-75
2023/05/09 09:04:58;;;;;;;5.50;2.67;;;21.10;42.20;;;;;;5052321;28;20025;-74
2023/05/09 09:07:26;;;;;;;7.20;2.75;;;21.10;42.30;;;;;;5052309;28;20496;-74
2023/05/09 09:09:54;;;;;;;3.97;2.60;;;21.10;42.40;;;;;;5050914;28;20028;-74
2023/05/09 09:12:22;;;;;;;4.50;2.70;;;21.10;42.50;;;;;;5051173;28;20037;-78
2023/05/09 09:14:54;;;;;;;4.70;2.97;;;21.20;42.60;;;;;;5051721;28;20506;-77
2023/05/09 09:17:26;;;;;;;5.53;2.70;;;21.10;42.60;;;;;;5050485;28;20199;-77
2023/05/09 09:19:58;;;;;;;6.53;3.08;;;21.10;42.90;;;;;;5049653;28;20091;-77
2023/05/09 09:22:34;;;;;;;6.70;2.90;;;21.10;43.40;;;;;;5051663;28;20044;-77
2023/05/09 09:25:01;;;;;;;6.25;3.00;;;21.10;42.90;;;;;;5051565;28;20033;-76
2023/05/09 09:27:27;;;;;;;6.15;3.28;;;21.10;43.00;;;;;;5050535;28;20052;-74
2023/05/09 09:29:53;;;;;;;4.57;2.67;;;21.10;43.30;;;;;;5052066;28;20029;-75
2023/05/09 09:32:19;;;;;;;6.05;2.80;;;21.10;43.40;;;;;;5050246;28;20111;-75
2023/05/09 09:34:48;;;;;;;4.75;2.80;;;21.20;43.40;;;;;;5050732;28;20056;-75
2023/05/09 09:37:22;;;;;;;;;;;21.20;43.50;;;;;;5052206;28;20457;-75
2023/05/09 09:39:55;;;;;;;6.20;2.97;;;21.20;43.50;;;;;;5048826;28;20028;-75
2023/05/09 09:42:22;;;;;;;7.57;2.90;;;21.20;43.60;;;;;;5049332;28;20033;-74
2023/05/09 09:45:08;;;;;;;8.50;3.13;;;21.20;43.60;;;;;;5049440;28;20021;-75
2023/05/09 09:47:34;;;;;;;7.68;2.88;;;21.20;43.70;;;;;;5034136;28;20041;-75
2023/05/09 09:50:10;;;;;;;6.55;2.78;;;21.20;43.80;;;;;;5050341;28;20032;-75
2023/05/09 09:52:40;;;;;;;8.80;3.28;;;21.20;43.80;;;;;;5049434;28;20044;-75
2023/05/09 09:55:06;;;;;;;5.85;2.78;;;21.20;43.90;;;;;;5048352;28;20092;-75
2023/05/09 09:57:37;;;;;;;6.63;3.00;;;21.20;43.90;;;;;;5049828;28;20087;-75
2023/05/09 10:00:05;;;;;;;6.38;3.13;;;21.10;43.90;;;;;;5051651;28;20035;-75
2023/05/09 10:02:32;;;;;;;6.25;3.22;;;21.20;44.00;;;;;;5051023;28;20426;-75
2023/05/09 10:05:07;;;;;;;8.48;3.40;;;21.20;44.10;;;;;;5051157;28;20055;-76
2023/05/09 10:07:34;;;;;;;9.32;3.53;;;21.20;44.10;;;;;;5033493;28;20045;-76
2023/05/09 10:10:04;;;;;;;7.90;4.07;;;21.20;44.40;;;;;;5049691;28;20083;-74
2023/05/09 10:12:35;;;;;;;11.70;4.32;;;21.20;44.60;;;;;;5050851;28;20044;-75
2023/05/09 10:15:06;;;;;;;8.25;4.28;;;21.20;44.90;;;;;;5050582;28;20025;-91
2023/05/09 10:17:32;;;;;;;18.60;5.40;;;21.20;45.20;;;;;;5047829;28;20078;-82
2023/05/09 10:20:03;;;;;;;12.05;3.42;;;21.10;44.50;;;;;;5049132;28;20445;-76
2023/05/09 10:22:32;;;;;;;13.10;3.88;;;21.00;43.70;;;;;;5048801;28;20032;-76
2023/05/09 10:25:07;;;;;;;11.43;3.95;;;21.00;43.10;;;;;;5032970;28;20029;-75
2023/05/09 10:27:40;;;;;;;11.18;3.45;;;21.00;42.30;;;;;;5049166;28;20064;-75
2023/05/09 10:30:09;;;;;;;9.05;3.85;;;21.00;41.70;;;;;;5050449;28;20044;-74
2023/05/09 10:32:48;;;;;;;11.60;3.92;;;21.00;39.80;;;;;;5049074;28;20032;-74
2023/05/09 10:35:17;;;;;;;8.15;3.85;;;20.90;40.70;;;;;;5049442;28;20379;-75
2023/05/09 10:37:44;;;;;;;7.80;3.53;;;20.90;40.30;;;;;;5050507;28;20067;-74
2023/05/09 10:40:13;;;;;;;8.55;3.35;;;20.90;39.60;;;;;;5050551;28;20036;-74
2023/05/09 10:42:44;;;;;;;5.68;3.03;;;20.90;39.10;;;;;;5050107;28;20021;-74
2023/05/09 10:45:11;;;;;;;6.93;3.63;;;20.90;38.80;;;;;;5049365;28;20021;-73
2023/05/09 10:47:38;;;;;;;7.70;3.67;;;21.00;37.70;;;;;;5081933;28;20049;-74
2023/05/09 10:50:12;;;;;;;9.95;3.60;;;21.00;38.20;;;;;;5050491;28;20104;-73
2023/05/09 10:53:16;;;;;;;20.67;3.55;;;21.00;38.40;;;;;;5049666;28;20037;-73
2023/05/09 10:55:52;;;;;;;12.68;3.63;;;21.10;37.80;;;;;;5049002;28;20498;-75
2023/05/09 10:58:21;;;;;;;14.57;4.07;;;21.00;38.60;;;;;;5050225;28;20043;-75
2023/05/09 11:00:48;;;;;;;14.70;4.03;;;21.10;38.60;;;;;;5047309;28;20450;-74
2023/05/09 11:03:14;;;;;;;10.23;3.67;;;21.00;38.60;;;;;;5048419;28;20025;-75
2023/05/09 11:05:40;;;;;;;8.75;4.10;;;21.00;38.70;;;;;;5049991;28;20037;-75
2023/05/09 11:08:19;;;;;;;8.30;3.90;;;21.00;39.10;;;;;;5050369;28;20386;-75
2023/05/09 11:10:45;;;;;;;6.57;3.55;;;21.00;39.10;;;;;;5049569;28;20087;-75
2023/05/09 11:13:12;;;;;;;7.40;3.25;;;21.00;39.20;;;;;;5048674;28;20037;-75
2023/05/09 11:16:05;;;;;;;8.38;4.03;;;21.00;39.40;;;;;;5049274;28;20449;-74
2023/05/09 11:18:31;;;;;;;9.00;3.67;;;21.00;39.70;;;;;;5047100;28;20035;-75
2023/05/09 11:20:57;;;;;;;7.97;3.65;;;21.00;39.80;;;;;;5045432;28;20112;-75
2023/05/09 11:23:29;;;;;;;9.82;4.15;;;21.00;39.90;;;;;;5048261;28;20490;-75
2023/05/09 11:26:07;;;;;;;7.07;3.13;;;21.00;40.10;;;;;;5049415;28;20483;-75
2023/05/09 11:28:37;;;;;;;9.13;3.45;;;21.00;40.30;;;;;;5064619;22;20116;-76
2023/05/09 11:31:14;;;;;;;10.07;3.70;;;21.10;40.60;;;;;;5030185;28;20065;-77
2023/05/09 11:33:43;;;;;;;9.20;4.07;;;21.10;40.90;;;;;;5068459;28;20485;-77
2023/05/09 11:36:30;;;;;;;5.23;3.30;;;21.10;41.50;;;;;;5069588;28;20036;-77
2023/05/09 11:39:08;;;;;;;9.52;3.70;;;21.20;41.90;;;;;;5051770;28;20037;-76
2023/05/09 11:41:45;;;;;;;7.10;3.45;;;21.20;42.20;;;;;;5069071;28;20060;-76
2023/05/09 11:44:18;;;;;;;10.93;3.47;;;21.30;42.10;;;;;;5069570;28;20533;-76
2023/05/09 11:46:45;;;;;;;12.35;3.67;;;21.40;43.20;;;;;;5035007;28;20025;-76
2023/05/09 11:49:12;;;;;;;9.32;3.90;;;21.40;43.80;;;;;;5069461;28;20028;-76
2023/05/09 11:51:38;;;;;;;9.38;3.42;;;21.40;45.30;;;;;;5069176;28;20032;-76
2023/05/09 11:54:06;;;;;;;7.93;3.80;;;21.30;45.10;;;;;;5069424;28;20041;-76
2023/05/09 11:56:34;;;;;;;8.48;3.25;;;21.40;44.00;;;;;;5068093;28;20158;-76
2023/05/09 11:59:00;;;;;;;9.07;3.78;;;21.30;44.00;;;;;;5067993;28;20039;-76
2023/05/09 12:01:28;;;;;;;7.82;3.22;;;21.30;44.20;;;;;;5068897;28;20028;-76
2023/05/09 12:03:54;;;;;;;11.60;3.90;;;21.30;44.30;;;;;;5068207;28;20085;-76
2023/05/09 12:06:20;;;;;;;7.55;3.50;;;21.30;44.30;;;;;;5069379;28;20024;-76
2023/05/09 12:08:46;;;;;;;6.43;3.53;;;21.30;44.30;;;;;;5035704;28;20033;-76
2023/05/09 12:11:13;;;;;;;8.60;3.63;;;21.30;44.10;;;;;;5027199;28;20091;-76
2023/05/09 12:13:51;;;;;;;13.00;3.90;;;21.30;44.20;;;;;;5029068;28;20113;-77
2023/05/09 12:16:21;;;;;;;7.90;3.88;;;21.30;44.10;;;;;;5027880;28;20029;-76
2023/05/09 12:18:51;;;;;;;10.70;3.70;;;21.30;44.10;;;;;;5028969;28;20033;-75
2023/05/09 12:21:18;;;;;;;9.95;3.58;;;21.30;44.10;;;;;;5033831;28;20025;-73
2023/05/09 12:23:45;;;;;;;8.98;3.60;;;21.30;44.30;;;;;;5047716;28;20025;-71
2023/05/09 12:26:11;;;;;;;10.68;3.65;;;21.30;44.30;;;;;;5049131;28;20032;-71
2023/05/09 12:28:37;;;;;;;18.65;4.13;;;21.30;44.40;;;;;;5048637;28;20025;-72
2023/05/09 12:31:04;;;;;;;11.23;3.65;;;21.30;44.40;;;;;;5047469;28;20032;-72
2023/05/09 12:33:37;;;;;;;13.40;3.80;;;21.30;44.50;;;;;;5048866;28;20033;-73
2023/05/09 12:36:15;;;;;;;9.10;3.70;;;21.30;44.50;;;;;;5047871;28;20470;-72
2023/05/09 12:38:51;;;;;;;6.32;3.65;;;21.30;44.60;;;;;;5048797;28;20071;-73
2023/05/09 12:41:17;;;;;;;8.23;3.88;;;21.30;44.60;;;;;;5047503;28;20037;-72
2023/05/09 12:43:50;;;;;;;8.13;4.13;;;21.30;44.60;;;;;;5047495;28;20025;-72
2023/05/09 12:46:20;;;;;;;11.52;3.92;;;21.30;44.70;;;;;;5030980;28;20091;-72
2023/05/09 12:48:48;;;;;;;6.78;3.70;;;21.30;44.60;;;;;;5030617;28;20033;-72